Time;durP1;ratioP1;P1;durP2;ratioP2;P2;SDS_P1;SDS_P2;PMS_P1;PMS_P2;Temp;Humidity;BMP_temperature;BMP_pressure;BME280_temperature;BME280_humidity;BME280_pressure;Samples;Min_cycle;Max_cycle;Signal;HPM_P1;HPM_P2
2023/09/27 00:00:59;;;;;;;6.82;4.38;;;;;;;;;;5028288;28;20419;-73
2023/09/27 00:03:25;;;;;;;7.30;4.07;;;;;;;;;;5026390;28;20090;-73
2023/09/27 00:05:50;;;;;;;6.47;3.83;;;;;;;;;;5027446;28;20447;-72
2023/09/27 00:08:15;;;;;;;7.00;4.10;;;;;;;;;;5025152;28;20363;-72
2023/09/27 00:10:41;;;;;;;7.27;4.03;;;;;;;;;;5029334;28;20272;-72
2023/09/27 00:13:06;;;;;;;7.82;4.10;;;;;;;;;;5029385;28;20276;-72
2023/09/27 00:15:31;;;;;;;10.50;4.53;;;;;;;;;;5028480;28;20036;-72
2023/09/27 00:17:56;;;;;;;7.22;4.43;;;;;;;;;;5035325;28;20717;-72
2023/09/27 00:20:22;;;;;;;10.40;4.20;;;;;;;;;;5029770;28;20653;-72
2023/09/27 00:22:47;;;;;;;7.00;4.60;;;;;;;;;;5020908;28;20032;-72
2023/09/27 00:25:14;;;;;;;9.85;3.92;;;;;;;;;;5025895;28;20032;-72
2023/09/27 00:27:39;;;;;;;5.50;3.88;;;;;;;;;;5027264;28;20048;-72
2023/09/27 00:30:07;;;;;;;14.27;4.43;;;;;;;;;;5032416;28;20468;-72
2023/09/27 00:32:32;;;;;;;6.38;4.40;;;;;;;;;;5028402;28;20064;-72
2023/09/27 00:34:57;;;;;;;6.50;4.10;;;;;;;;;;5028221;28;20449;-72
2023/09/27 00:37:22;;;;;;;10.07;4.30;;;;;;;;;;5032870;28;20492;-72
2023/09/27 00:39:47;;;;;;;8.03;3.93;;;;;;;;;;5027727;28;20064;-72
2023/09/27 00:42:15;;;;;;;6.13;4.17;;;;;;;;;;5033087;28;20631;-72
2023/09/27 00:44:40;;;;;;;7.50;3.97;;;;;;;;;;5030335;28;20446;-72
2023/09/27 00:47:06;;;;;;;5.22;3.72;;;;;;;;;;5027290;28;20022;-72
2023/09/27 00:49:31;;;;;;;7.18;4.38;;;;;;;;;;5025005;28;20040;-72
2023/09/27 00:51:57;;;;;;;7.90;3.67;;;;;;;;;;5028755;28;20022;-72
2023/09/27 00:54:22;;;;;;;7.05;3.97;;;;;;;;;;5030287;28;20021;-72
2023/09/27 00:56:49;;;;;;;8.95;4.63;;;;;;;;;;5025613;28;20021;-72
2023/09/27 00:59:15;;;;;;;8.95;4.35;;;;;;;;;;5030420;28;20022;-72
2023/09/27 01:01:41;;;;;;;12.32;4.75;;;;;;;;;;5024413;28;20502;-72
2023/09/27 01:04:08;;;;;;;12.95;4.63;;;;;;;;;;5027532;28;20140;-72
2023/09/27 01:06:33;;;;;;;9.85;4.38;;;;;;;;;;5023163;28;20101;-72
2023/09/27 01:08:58;;;;;;;9.20;4.03;;;;;;;;;;5022597;28;20433;-72
2023/09/27 01:11:24;;;;;;;9.07;3.73;;;;;;;;;;5022711;28;20028;-72
2023/09/27 01:13:50;;;;;;;8.50;4.28;;;;;;;;;;5024118;28;20280;-72
2023/09/27 01:16:15;;;;;;;11.75;4.20;;;;;;;;;;5027840;28;20017;-72
2023/09/27 01:18:40;;;;;;;7.33;4.27;;;;;;;;;;5020872;28;20030;-72
2023/09/27 01:21:05;;;;;;;12.50;4.05;;;;;;;;;;5021148;28;20483;-72
2023/09/27 01:23:30;;;;;;;6.93;4.30;;;;;;;;;;5023085;28;20423;-72
2023/09/27 01:25:59;;;;;;;8.50;4.60;;;;;;;;;;5028442;28;20330;-72
2023/09/27 01:28:25;;;;;;;7.53;4.25;;;;;;;;;;5030133;28;20033;-72
2023/09/27 01:30:50;;;;;;;12.52;5.40;;;;;;;;;;5028720;28;20030;-72
2023/09/27 01:33:15;;;;;;;8.90;4.65;;;;;;;;;;5027535;28;20013;-72
2023/09/27 01:35:42;;;;;;;7.87;4.20;;;;;;;;;;5027248;28;20046;-72
2023/09/27 01:38:08;;;;;;;6.72;3.78;;;;;;;;;;5027638;28;20267;-72
2023/09/27 01:40:41;;;;;;;10.38;4.40;;;;;;;;;;5026634;28;20106;-72
2023/09/27 01:43:07;;;;;;;9.52;4.25;;;;;;;;;;5023454;28;20021;-72
2023/09/27 01:45:32;;;;;;;7.88;4.22;;;;;;;;;;5028157;28;20018;-72
2023/09/27 01:47:58;;;;;;;5.80;4.03;;;;;;;;;;5029269;28;20026;-72
2023/09/27 01:50:24;;;;;;;6.55;4.30;;;;;;;;;;5027613;28;20017;-72
2023/09/27 01:52:50;;;;;;;6.05;4.28;;;;;;;;;;5026453;28;20151;-72
2023/09/27 01:55:15;;;;;;;5.72;3.60;;;;;;;;;;5028521;28;20024;-72
2023/09/27 01:57:41;;;;;;;8.52;4.03;;;;;;;;;;5028768;28;20481;-72
2023/09/27 02:00:11;;;;;;;5.53;4.07;;;;;;;;;;5028416;28;20488;-72
2023/09/27 02:02:40;;;;;;;10.35;3.85;;;;;;;;;;5024462;28;20009;-72
2023/09/27 02:05:05;;;;;;;5.75;3.97;;;;;;;;;;5027170;28;20092;-72
2023/09/27 02:07:30;;;;;;;6.80;4.05;;;;;;;;;;5027531;28;20492;-72
2023/09/27 02:09:56;;;;;;;5.47;3.80;;;;;;;;;;5028979;28;20025;-72
2023/09/27 02:12:21;;;;;;;10.03;4.40;;;;;;;;;;5024948;28;20038;-72
2023/09/27 02:14:46;;;;;;;5.68;4.05;;;;;;;;;;5030426;28;20280;-72
2023/09/27 02:17:11;;;;;;;7.40;4.07;;;;;;;;;;5032711;28;20101;-72
2023/09/27 02:19:36;;;;;;;10.20;4.17;;;;;;;;;;5031607;28;20040;-72
2023/09/27 02:22:02;;;;;;;8.70;4.77;;;;;;;;;;5024425;28;20296;-72
2023/09/27 02:24:27;;;;;;;7.88;4.65;;;;;;;;;;5031057;28;20252;-72
2023/09/27 02:26:53;;;;;;;5.95;4.63;;;;;;;;;;5024995;28;20025;-72
2023/09/27 02:29:19;;;;;;;9.77;4.13;;;;;;;;;;5025231;28;20052;-72
2023/09/27 02:31:44;;;;;;;8.05;4.25;;;;;;;;;;5024870;28;20092;-72
2023/09/27 02:34:09;;;;;;;6.03;4.30;;;;;;;;;;5029971;28;20116;-73
2023/09/27 02:36:34;;;;;;;7.87;4.63;;;;;;;;;;5029159;28;20610;-72
2023/09/27 02:38:59;;;;;;;8.97;4.03;;;;;;;;;;5028583;28;20307;-72
2023/09/27 02:41:24;;;;;;;5.87;4.43;;;;;;;;;;5023880;28;20643;-72
2023/09/27 02:43:50;;;;;;;7.23;4.60;;;;;;;;;;5025469;28;20264;-72
2023/09/27 02:46:15;;;;;;;11.97;4.47;;;;;;;;;;5028787;28;20616;-72
2023/09/27 02:48:40;;;;;;;10.17;4.47;;;;;;;;;;5030635;28;20024;-72
2023/09/27 02:51:05;;;;;;;9.20;4.93;;;;;;;;;;5030028;28;20671;-73
2023/09/27 02:53:30;;;;;;;15.02;4.50;;;;;;;;;;5030600;28;20272;-73
2023/09/27 02:55:55;;;;;;;11.23;4.95;;;;;;;;;;5030425;28;20032;-72
2023/09/27 02:58:21;;;;;;;8.82;4.85;;;;;;;;;;5032588;28;20026;-72
2023/09/27 03:00:48;;;;;;;6.72;4.30;;;;;;;;;;5029444;28;20013;-72
2023/09/27 03:03:13;;;;;;;11.48;4.75;;;;;;;;;;5031457;28;20365;-72
2023/09/27 03:05:38;;;;;;;14.80;5.10;;;;;;;;;;5031056;28;20076;-72
2023/09/27 03:08:04;;;;;;;8.43;4.75;;;;;;;;;;5028861;28;20030;-72
2023/09/27 03:10:29;;;;;;;7.82;4.70;;;;;;;;;;5026910;28;20514;-73
2023/09/27 03:12:58;;;;;;;8.93;5.30;;;;;;;;;;5026171;28;20017;-72
2023/09/27 03:15:24;;;;;;;13.13;4.97;;;;;;;;;;5024663;28;20313;-73
2023/09/27 03:17:49;;;;;;;9.27;5.10;;;;;;;;;;5030177;28;20448;-72
2023/09/27 03:20:18;;;;;;;8.73;4.95;;;;;;;;;;5025621;28;20018;-73
2023/09/27 03:22:44;;;;;;;9.80;5.70;;;;;;;;;;5026573;28;20064;-72
2023/09/27 03:25:10;;;;;;;13.32;5.65;;;;;;;;;;5024157;28;20025;-73
2023/09/27 03:27:35;;;;;;;8.07;5.35;;;;;;;;;;5023238;28;20439;-73
2023/09/27 03:30:00;;;;;;;8.40;4.68;;;;;;;;;;5027875;28;20021;-73
2023/09/27 03:32:26;;;;;;;10.30;5.27;;;;;;;;;;5022208;28;20547;-72
2023/09/27 03:34:51;;;;;;;10.80;5.60;;;;;;;;;;5023399;28;20284;-72
2023/09/27 03:37:16;;;;;;;7.72;5.13;;;;;;;;;;5024041;28;20010;-73
2023/09/27 03:39:42;;;;;;;8.50;5.13;;;;;;;;;;5028884;28;20094;-72
2023/09/27 03:42:07;;;;;;;10.20;5.75;;;;;;;;;;5029722;28;20264;-72
2023/09/27 03:44:33;;;;;;;8.47;5.37;;;;;;;;;;5031069;28;20021;-72
2023/09/27 03:46:58;;;;;;;9.82;5.10;;;;;;;;;;5032244;28;20268;-72
2023/09/27 03:49:23;;;;;;;9.00;5.50;;;;;;;;;;5028482;28;20048;-72
2023/09/27 03:51:48;;;;;;;8.17;5.07;;;;;;;;;;5030653;28;20295;-72
2023/09/27 03:54:14;;;;;;;17.00;6.05;;;;;;;;;;5027150;28;20306;-72
2023/09/27 03:56:39;;;;;;;12.98;6.10;;;;;;;;;;5031060;28;20167;-72
2023/09/27 03:59:05;;;;;;;10.73;5.75;;;;;;;;;;5029914;28;20024;-72
2023/09/27 04:01:30;;;;;;;9.57;5.73;;;;;;;;;;5029569;28;20036;-72
2023/09/27 04:03:57;;;;;;;10.20;5.55;;;;;;;;;;5027608;28;20334;-72
2023/09/27 04:06:23;;;;;;;10.13;6.03;;;;;;;;;;5030172;28;20021;-72
2023/09/27 04:08:48;;;;;;;9.50;6.10;;;;;;;;;;5032582;28;20033;-72
2023/09/27 04:11:13;;;;;;;9.07;5.47;;;;;;;;;;5033680;28;20270;-72
2023/09/27 04:13:38;;;;;;;11.75;6.03;;;;;;;;;;5028773;28;20272;-72
2023/09/27 04:16:04;;;;;;;11.88;5.63;;;;;;;;;;5027907;28;20025;-72
2023/09/27 04:18:29;;;;;;;9.02;4.95;;;;;;;;;;5033374;28;20032;-72
2023/09/27 04:20:54;;;;;;;9.57;5.90;;;;;;;;;;5029131;28;20024;-73
2023/09/27 04:23:19;;;;;;;12.13;5.95;;;;;;;;;;5028023;28;20616;-73
2023/09/27 04:25:44;;;;;;;8.27;5.80;;;;;;;;;;5025163;28;20524;-72
2023/09/27 04:28:10;;;;;;;12.52;5.60;;;;;;;;;;5032488;28;20354;-72
2023/09/27 04:30:35;;;;;;;13.10;6.43;;;;;;;;;;5028416;28;20075;-72
2023/09/27 04:33:00;;;;;;;10.33;5.90;;;;;;;;;;5030125;28;20064;-72
2023/09/27 04:35:26;;;;;;;8.30;5.20;;;;;;;;;;5032563;28;20640;-72
2023/09/27 04:37:51;;;;;;;10.07;5.45;;;;;;;;;;5029560;28;20264;-72
2023/09/27 04:40:17;;;;;;;12.00;4.53;;;;;;;;;;5028812;28;20531;-72
2023/09/27 04:42:42;;;;;;;7.43;4.78;;;;;;;;;;5028568;28;20268;-72
2023/09/27 04:45:09;;;;;;;9.98;5.10;;;;;;;;;;5030668;28;20048;-72
2023/09/27 04:47:34;;;;;;;10.70;4.95;;;;;;;;;;5027562;28;20020;-72
2023/09/27 04:49:59;;;;;;;15.77;5.13;;;;;;;;;;5021881;28;20033;-72
2023/09/27 04:52:24;;;;;;;7.63;4.68;;;;;;;;;;5023034;28;20638;-72
2023/09/27 04:54:53;;;;;;;10.32;5.07;;;;;;;;;;5027736;28;20543;-72
2023/09/27 04:57:19;;;;;;;7.35;5.18;;;;;;;;;;5028257;28;20096;-72
2023/09/27 04:59:45;;;;;;;9.63;4.55;;;;;;;;;;5026560;28;20083;-72
2023/09/27 05:02:10;;;;;;;8.68;5.07;;;;;;;;;;5032578;28;20434;-72
2023/09/27 05:04:35;;;;;;;9.48;5.38;;;;;;;;;;5028374;28;20033;-72
2023/09/27 05:07:00;;;;;;;12.30;5.30;;;;;;;;;;5027594;28;20049;-72
2023/09/27 05:09:26;;;;;;;11.77;5.90;;;;;;;;;;5025371;28;20686;-72
2023/09/27 05:11:51;;;;;;;12.20;6.30;;;;;;;;;;5030806;28;20290;-72
2023/09/27 05:14:17;;;;;;;10.73;5.85;;;;;;;;;;5030662;28;20479;-72
2023/09/27 05:16:42;;;;;;;15.30;5.75;;;;;;;;;;5028485;28;20028;-72
2023/09/27 05:19:07;;;;;;;22.88;6.50;;;;;;;;;;5029042;28;20116;-72
2023/09/27 05:21:32;;;;;;;11.40;6.20;;;;;;;;;;5027062;28;20583;-72
2023/09/27 05:23:57;;;;;;;16.83;6.13;;;;;;;;;;5032512;28;20268;-72
2023/09/27 05:26:23;;;;;;;13.80;5.80;;;;;;;;;;5032378;28;20294;-72
2023/09/27 05:28:48;;;;;;;18.42;6.88;;;;;;;;;;5029662;28;20434;-72
2023/09/27 05:31:14;;;;;;;11.70;6.28;;;;;;;;;;5027772;28;20384;-72
2023/09/27 05:33:39;;;;;;;9.83;6.07;;;;;;;;;;5026117;28;20025;-72
2023/09/27 05:36:05;;;;;;;11.40;5.97;;;;;;;;;;5026686;28;20647;-72
2023/09/27 05:38:30;;;;;;;12.98;6.07;;;;;;;;;;5023151;28;20384;-72
2023/09/27 05:40:55;;;;;;;10.75;6.45;;;;;;;;;;5024546;28;20164;-72
2023/09/27 05:43:20;;;;;;;16.00;6.20;;;;;;;;;;5027494;28;20551;-72
2023/09/27 05:45:45;;;;;;;9.33;5.93;;;;;;;;;;5023462;28;20044;-72
2023/09/27 05:48:14;;;;;;;9.87;5.73;;;;;;;;;;5031683;28;20263;-72
2023/09/27 05:50:40;;;;;;;14.45;6.38;;;;;;;;;;5031064;28;20284;-72
2023/09/27 05:53:06;;;;;;;16.17;6.13;;;;;;;;;;5028150;28;20013;-72
2023/09/27 05:55:31;;;;;;;10.38;6.00;;;;;;;;;;5026143;28;20040;-72
2023/09/27 05:57:56;;;;;;;11.27;6.50;;;;;;;;;;5031007;28;20112;-72
2023/09/27 06:00:23;;;;;;;10.57;6.63;;;;;;;;;;5027883;28;20937;-72
2023/09/27 06:02:49;;;;;;;9.85;5.85;;;;;;;;;;5030623;28;20546;-71
2023/09/27 06:05:14;;;;;;;13.15;6.68;;;;;;;;;;5026896;28;20029;-72
2023/09/27 06:07:39;;;;;;;14.87;6.03;;;;;;;;;;5031162;28;20021;-71
2023/09/27 06:10:06;;;;;;;9.43;5.80;;;;;;;;;;5026251;28;20706;-72
2023/09/27 06:12:31;;;;;;;24.70;6.05;;;;;;;;;;5025468;28;20033;-72
2023/09/27 06:14:57;;;;;;;28.98;6.63;;;;;;;;;;5027798;28;20029;-72
2023/09/27 06:17:23;;;;;;;13.25;6.35;;;;;;;;;;5028025;28;20025;-72
2023/09/27 06:19:49;;;;;;;14.93;5.90;;;;;;;;;;5026236;28;20017;-71
2023/09/27 06:22:15;;;;;;;12.80;6.28;;;;;;;;;;5023892;28;20014;-72
2023/09/27 06:24:40;;;;;;;11.45;6.82;;;;;;;;;;5023586;28;20488;-72
2023/09/27 06:27:06;;;;;;;12.02;6.88;;;;;;;;;;5023414;28;20021;-72
2023/09/27 06:29:31;;;;;;;12.63;6.60;;;;;;;;;;5025295;28;20026;-72
2023/09/27 06:31:56;;;;;;;9.70;6.80;;;;;;;;;;5030361;28;20931;-71
2023/09/27 06:34:22;;;;;;;12.10;5.90;;;;;;;;;;5027007;28;20283;-72
2023/09/27 06:36:48;;;;;;;17.17;8.57;;;;;;;;;;5026383;28;20036;-71
2023/09/27 06:39:18;;;;;;;17.98;7.22;;;;;;;;;;5029991;28;20020;-72
2023/09/27 06:41:45;;;;;;;11.70;5.80;;;;;;;;;;5036590;28;20017;-71
2023/09/27 06:44:10;;;;;;;12.10;5.28;;;;;;;;;;5028507;28;20492;-72
2023/09/27 06:46:35;;;;;;;11.85;5.57;;;;;;;;;;5032403;28;20079;-71
2023/09/27 06:49:01;;;;;;;11.15;4.68;;;;;;;;;;5029182;28;20400;-72
2023/09/27 06:51:26;;;;;;;8.93;5.28;;;;;;;;;;5028290;28;20021;-71
2023/09/27 06:53:52;;;;;;;9.60;5.40;;;;;;;;;;5027686;28;20400;-71
2023/09/27 06:56:17;;;;;;;11.95;5.68;;;;;;;;;;5035444;28;20275;-71
2023/09/27 06:58:42;;;;;;;13.23;5.57;;;;;;;;;;5031283;28;20025;-71
2023/09/27 07:01:07;;;;;;;9.82;5.55;;;;;;;;;;5030587;28;20507;-72
2023/09/27 07:03:36;;;;;;;12.80;6.05;;;;;;;;;;5035057;28;20045;-72
2023/09/27 07:06:02;;;;;;;13.02;6.53;;;;;;;;;;5034896;28;20104;-72
2023/09/27 07:08:27;;;;;;;11.07;6.28;;;;;;;;;;5030591;28;20025;-71
2023/09/27 07:10:53;;;;;;;11.18;6.03;;;;;;;;;;5029527;28;20033;-72
2023/09/27 07:13:18;;;;;;;10.00;5.73;;;;;;;;;;5028194;28;20041;-71
2023/09/27 07:15:45;;;;;;;10.10;5.57;;;;;;;;;;5034265;28;20047;-72
2023/09/27 07:18:11;;;;;;;9.93;5.53;;;;;;;;;;5038027;28;20060;-71
2023/09/27 07:20:36;;;;;;;10.25;4.65;;;;;;;;;;5034570;28;20455;-71
2023/09/27 07:23:04;;;;;;;11.48;5.35;;;;;;;;;;5036024;28;20075;-71
2023/09/27 07:25:29;;;;;;;11.25;4.85;;;;;;;;;;5024342;28;20025;-72
2023/09/27 07:27:55;;;;;;;11.63;5.20;;;;;;;;;;5034611;28;20079;-72
2023/09/27 07:30:23;;;;;;;8.75;5.13;;;;;;;;;;5031740;28;20330;-72
2023/09/27 07:32:49;;;;;;;10.50;5.15;;;;;;;;;;5028708;28;20032;-71
2023/09/27 07:35:16;;;;;;;9.63;5.93;;;;;;;;;;5028064;28;20022;-71
2023/09/27 07:37:42;;;;;;;10.38;6.05;;;;;;;;;;5017429;28;20453;-72
2023/09/27 07:40:09;;;;;;;8.88;5.75;;;;;;;;;;5021234;28;20017;-72
2023/09/27 07:42:34;;;;;;;14.02;6.35;;;;;;;;;;5020564;28;20116;-72
2023/09/27 07:45:00;;;;;;;9.30;5.45;;;;;;;;;;5018429;28;20038;-72
2023/09/27 07:47:25;;;;;;;11.82;5.93;;;;;;;;;;5019664;28;20112;-72
2023/09/27 07:49:50;;;;;;;8.67;5.80;;;;;;;;;;5023971;28;20492;-72
2023/09/27 07:52:15;;;;;;;15.60;5.88;;;;;;;;;;5024463;28;20177;-72
2023/09/27 07:54:41;;;;;;;15.63;7.22;;;;;;;;;;5024423;28;20053;-72
2023/09/27 07:57:06;;;;;;;10.97;6.87;;;;;;;;;;5023532;28;20022;-72
2023/09/27 07:59:31;;;;;;;12.77;5.70;;;;;;;;;;5026239;28;20017;-72
2023/09/27 08:01:56;;;;;;;11.07;7.23;;;;;;;;;;5021435;28;20673;-72
2023/09/27 08:04:22;;;;;;;13.45;7.00;;;;;;;;;;5029655;28;20306;-72
2023/09/27 08:06:47;;;;;;;14.43;7.10;;;;;;;;;;5026588;28;20037;-72
2023/09/27 08:09:14;;;;;;;15.60;6.72;;;;;;;;;;5025505;28;20472;-71
2023/09/27 08:11:39;;;;;;;9.50;6.20;;;;;;;;;;5029401;28;20376;-72
2023/09/27 08:14:04;;;;;;;11.50;6.18;;;;;;;;;;5029702;28;20025;-71
2023/09/27 08:16:29;;;;;;;9.10;5.60;;;;;;;;;;5030185;28;20021;-72
2023/09/27 08:18:55;;;;;;;8.82;5.03;;;;;;;;;;5029872;28;20021;-72
2023/09/27 08:21:20;;;;;;;7.32;4.65;;;;;;;;;;5030867;28;20096;-73
2023/09/27 08:23:45;;;;;;;8.37;4.70;;;;;;;;;;5031786;28;20383;-73
2023/09/27 08:26:12;;;;;;;7.77;3.43;;;;;;;;;;5028716;28;20263;-73
2023/09/27 08:28:37;;;;;;;5.40;3.78;;;;;;;;;;5029617;28;20336;-73
2023/09/27 08:31:04;;;;;;;7.00;3.75;;;;;;;;;;5027548;28;20113;-73
2023/09/27 08:33:30;;;;;;;9.63;3.92;;;;;;;;;;5025838;28;20121;-73
2023/09/27 08:35:55;;;;;;;4.97;3.75;;;;;;;;;;5027766;28;20604;-72
2023/09/27 08:38:20;;;;;;;5.07;3.05;;;;;;;;;;5029107;28;20063;-73
2023/09/27 08:40:47;;;;;;;5.77;3.27;;;;;;;;;;5028016;28;20021;-73
2023/09/27 08:43:14;;;;;;;5.68;3.25;;;;;;;;;;5028589;28;20098;-73
2023/09/27 08:45:39;;;;;;;8.63;3.75;;;;;;;;;;5027243;28;20063;-73
2023/09/27 08:48:05;;;;;;;8.13;3.13;;;;;;;;;;5028329;28;20057;-73
2023/09/27 08:50:31;;;;;;;6.97;3.35;;;;;;;;;;5025227;28;20657;-72
2023/09/27 08:52:57;;;;;;;6.65;3.58;;;;;;;;;;5024799;28;20025;-72
2023/09/27 08:55:22;;;;;;;6.28;3.80;;;;;;;;;;5023519;28;20503;-73
2023/09/27 08:57:50;;;;;;;5.25;3.22;;;;;;;;;;5023970;28;20690;-73
2023/09/27 09:00:27;;;;;;;9.63;2.85;;;;;;;;;;5027610;28;20068;-73
2023/09/27 09:02:57;;;;;;;4.55;3.28;;;;;;;;;;5027732;28;20754;-73
2023/09/27 09:05:24;;;;;;;11.45;3.67;;;;;;;;;;5023969;28;20052;-72
2023/09/27 09:07:50;;;;;;;11.68;3.95;;;;;;;;;;5024465;28;20069;-72
2023/09/27 09:10:16;;;;;;;11.02;4.03;;;;;;;;;;5021765;28;20045;-72
2023/09/27 09:12:42;;;;;;;6.97;3.20;;;;;;;;;;5025995;28;20539;-73
2023/09/27 09:15:14;;;;;;;5.35;2.97;;;;;;;;;;5024380;28;20029;-73
2023/09/27 09:17:42;;;;;;;11.43;3.70;;;;;;;;;;5022230;28;20025;-73
2023/09/27 09:20:27;;;;;;;7.95;3.65;;;;;;;;;;5030194;28;20021;-72
2023/09/27 09:22:54;;;;;;;5.93;3.05;;;;;;;;;;5026798;28;20384;-73
2023/09/27 09:25:21;;;;;;;4.32;2.75;;;;;;;;;;5027686;28;20052;-73
2023/09/27 09:28:07;;;;;;;6.40;2.65;;;;;;;;;;5030295;28;20013;-73
2023/09/27 09:30:37;;;;;;;4.60;2.63;;;;;;;;;;5026668;28;20017;-72
2023/09/27 09:33:03;;;;;;;6.50;3.35;;;;;;;;;;5028245;28;20029;-73
2023/09/27 09:35:32;;;;;;;4.93;2.72;;;;;;;;;;5027130;28;20022;-72
2023/09/27 09:38:01;;;;;;;4.22;2.38;;;;;;;;;;5030314;28;20023;-73
2023/09/27 09:40:27;;;;;;;3.63;2.30;;;;;;;;;;5032236;28;20017;-72
2023/09/27 09:42:52;;;;;;;8.32;2.80;;;;;;;;;;5028721;28;20388;-74
2023/09/27 09:45:18;;;;;;;12.65;2.67;;;;;;;;;;5032611;28;20362;-72
2023/09/27 09:47:44;;;;;;;7.45;3.03;;;;;;;;;;5029860;28;20033;-72
2023/09/27 09:50:16;;;;;;;3.83;2.22;;;;;;;;;;5027781;28;20049;-72
2023/09/27 09:52:42;;;;;;;6.90;2.50;;;;;;;;;;5028124;28;20019;-72
2023/09/27 09:55:08;;;;;;;11.98;2.85;;;;;;;;;;5029741;28;20542;-72
2023/09/27 09:57:36;;;;;;;5.53;2.20;;;;;;;;;;5026784;28;20052;-72
2023/09/27 10:00:13;;;;;;;4.30;2.65;;;;;;;;;;5026391;28;20029;-72
2023/09/27 10:02:49;;;;;;;14.48;4.00;;;;;;;;;;5027775;28;20631;-73
2023/09/27 10:05:17;;;;;;;5.55;2.63;;;;;;;;;;5031733;28;20033;-72
2023/09/27 10:07:44;;;;;;;9.40;3.80;;;;;;;;;;5031669;28;20048;-72
2023/09/27 10:10:09;;;;;;;2.67;1.83;;;;;;;;;;5031172;28;20022;-72
2023/09/27 10:12:34;;;;;;;3.88;2.55;;;;;;;;;;5031961;28;20416;-72
2023/09/27 10:15:01;;;;;;;5.30;2.97;;;;;;;;;;5032348;28;20045;-72
2023/09/27 10:17:26;;;;;;;5.68;2.08;;;;;;;;;;5026815;28;20522;-73
2023/09/27 10:20:14;;;;;;;10.00;2.65;;;;;;;;;;5030405;28;20017;-72
2023/09/27 10:22:43;;;;;;;4.55;2.22;;;;;;;;;;5025645;28;20018;-72
2023/09/27 10:25:30;;;;;;;10.77;4.03;;;;;;;;;;5032154;28;20515;-72
2023/09/27 10:28:01;;;;;;;4.10;2.03;;;;;;;;;;5030647;28;20021;-72
2023/09/27 10:30:27;;;;;;;6.15;2.20;;;;;;;;;;5029733;28;20104;-72
2023/09/27 10:33:11;;;;;;;3.42;1.67;;;;;;;;;;5028629;28;20128;-71
2023/09/27 10:35:36;;;;;;;4.30;2.08;;;;;;;;;;5021113;28;20021;-73
2023/09/27 10:38:08;;;;;;;3.67;1.50;;;;;;;;;;5026792;28;20475;-72
2023/09/27 10:40:41;;;;;;;3.25;1.67;;;;;;;;;;5028957;28;20135;-72
2023/09/27 10:43:06;;;;;;;4.45;1.58;;;;;;;;;;5027164;28;20100;-72
2023/09/27 10:45:32;;;;;;;4.75;1.42;;;;;;;;;;5025538;28;20123;-72
2023/09/27 10:48:12;;;;;;;4.00;2.10;;;;;;;;;;5026652;28;20024;-72
2023/09/27 10:50:38;;;;;;;2.83;1.33;;;;;;;;;;5026388;28;20017;-72
2023/09/27 10:53:05;;;;;;;5.45;1.83;;;;;;;;;;5028571;28;20451;-72
2023/09/27 10:55:38;;;;;;;3.67;2.15;;;;;;;;;;5027246;28;20170;-73
2023/09/27 10:58:03;;;;;;;4.25;2.00;;;;;;;;;;5023160;28;20030;-73
2023/09/27 11:00:29;;;;;;;4.87;2.20;;;;;;;;;;5027502;28;20048;-72
2023/09/27 11:02:55;;;;;;;4.28;2.20;;;;;;;;;;5029144;28;20264;-73
2023/09/27 11:05:24;;;;;;;3.58;1.88;;;;;;;;;;5025981;28;20155;-73
2023/09/27 11:07:50;;;;;;;6.32;2.42;;;;;;;;;;5029494;28;20480;-73
2023/09/27 11:10:29;;;;;;;4.18;1.58;;;;;;;;;;5029444;28;20034;-73
2023/09/27 11:13:03;;;;;;;3.27;2.13;;;;;;;;;;5029228;28;20442;-72
2023/09/27 11:15:29;;;;;;;4.63;1.75;;;;;;;;;;5023127;28;20693;-72
2023/09/27 11:17:55;;;;;;;1.60;0.85;;;;;;;;;;5025185;28;20148;-73
2023/09/27 11:20:20;;;;;;;3.15;1.38;;;;;;;;;;5026381;28;20024;-72
2023/09/27 11:22:46;;;;;;;3.97;1.73;;;;;;;;;;5028749;28;20384;-72
2023/09/27 11:25:30;;;;;;;3.70;1.40;;;;;;;;;;5025862;28;20026;-73
2023/09/27 11:27:56;;;;;;;7.15;1.83;;;;;;;;;;5025028;28;20077;-73
2023/09/27 11:30:30;;;;;;;1.98;1.35;;;;;;;;;;5025558;28;20049;-72
2023/09/27 11:32:55;;;;;;;3.22;1.80;;;;;;;;;;5023944;28;20044;-73
2023/09/27 11:35:20;;;;;;;4.13;1.83;;;;;;;;;;5028672;28;20029;-72
2023/09/27 11:37:47;;;;;;;3.30;1.38;;;;;;;;;;5029039;28;20033;-72
2023/09/27 11:40:13;;;;;;;1.55;0.73;;;;;;;;;;5029917;28;20090;-73
2023/09/27 11:42:38;;;;;;;4.20;0.85;;;;;;;;;;5025027;28;20532;-72
2023/09/27 11:45:04;;;;;;;10.90;1.80;;;;;;;;;;5026204;28;20916;-73
2023/09/27 11:47:44;;;;;;;4.22;1.65;;;;;;;;;;5019595;28;20286;-72
2023/09/27 11:50:09;;;;;;;3.08;1.55;;;;;;;;;;5022095;28;20160;-73
2023/09/27 11:52:34;;;;;;;2.73;1.67;;;;;;;;;;5024819;28;20096;-73
2023/09/27 11:54:59;;;;;;;4.03;1.98;;;;;;;;;;5023982;28;20025;-72
2023/09/27 11:57:25;;;;;;;3.50;1.97;;;;;;;;;;5019621;28;20014;-73
2023/09/27 11:59:50;;;;;;;6.67;2.20;;;;;;;;;;5021918;28;20442;-73
2023/09/27 12:02:18;;;;;;;3.20;1.70;;;;;;;;;;5022376;28;20028;-73
2023/09/27 12:04:44;;;;;;;5.60;2.05;;;;;;;;;;5026538;28;20017;-73
2023/09/27 12:07:10;;;;;;;3.58;1.88;;;;;;;;;;5023766;28;20017;-73
2023/09/27 12:09:35;;;;;;;2.10;1.23;;;;;;;;;;5023379;28;20017;-73
2023/09/27 12:12:00;;;;;;;4.10;1.87;;;;;;;;;;5026173;28;20377;-72
2023/09/27 12:14:25;;;;;;;4.23;1.87;;;;;;;;;;5023529;28;20839;-74
2023/09/27 12:16:50;;;;;;;4.47;1.73;;;;;;;;;;5021691;28;20025;-73
2023/09/27 12:19:16;;;;;;;6.80;1.70;;;;;;;;;;5022037;28;20014;-74
2023/09/27 12:21:41;;;;;;;4.90;2.03;;;;;;;;;;5027757;28;20105;-73
2023/09/27 12:24:06;;;;;;;10.83;2.03;;;;;;;;;;5026314;28;20132;-72
2023/09/27 12:26:33;;;;;;;3.88;1.58;;;;;;;;;;5028180;28;20014;-73
2023/09/27 12:28:58;;;;;;;3.95;1.90;;;;;;;;;;5026750;28;20024;-73
2023/09/27 12:31:24;;;;;;;3.30;1.70;;;;;;;;;;5024446;28;20013;-73
2023/09/27 12:33:49;;;;;;;4.22;1.55;;;;;;;;;;5023939;28;20452;-73
2023/09/27 12:36:14;;;;;;;2.70;1.60;;;;;;;;;;5023662;28;20096;-72
2023/09/27 12:38:40;;;;;;;6.13;1.77;;;;;;;;;;5027439;28;20067;-73
2023/09/27 12:41:08;;;;;;;2.17;1.35;;;;;;;;;;5028814;28;20376;-72
2023/09/27 12:43:33;;;;;;;2.95;1.92;;;;;;;;;;5027177;28;20017;-72
2023/09/27 12:46:00;;;;;;;4.85;2.15;;;;;;;;;;5024785;28;20021;-72
2023/09/27 12:48:25;;;;;;;6.75;2.08;;;;;;;;;;5025364;28;20026;-73
2023/09/27 12:50:51;;;;;;;3.37;1.53;;;;;;;;;;5025031;28;20028;-73
2023/09/27 12:53:16;;;;;;;2.90;1.55;;;;;;;;;;5025207;28;20275;-73
2023/09/27 12:55:42;;;;;;;4.32;1.73;;;;;;;;;;5025754;28;20022;-73
2023/09/27 12:58:07;;;;;;;2.80;1.83;;;;;;;;;;5025247;28;20018;-73
2023/09/27 13:00:34;;;;;;;7.43;0.98;;;;;;;;;;5027873;28;20022;-72
2023/09/27 13:02:59;;;;;;;3.78;2.00;;;;;;;;;;5028950;28;20022;-73
2023/09/27 13:05:24;;;;;;;2.80;2.13;;;;;;;;;;5026383;28;20036;-74
2023/09/27 13:07:49;;;;;;;4.65;1.85;;;;;;;;;;5026900;28;20200;-73
2023/09/27 13:10:15;;;;;;;6.70;2.17;;;;;;;;;;5021325;28;20029;-73
2023/09/27 13:12:40;;;;;;;1.70;1.40;;;;;;;;;;5024292;28;20017;-73
2023/09/27 13:15:05;;;;;;;3.40;1.90;;;;;;;;;;5025214;28;20296;-72
2023/09/27 13:17:31;;;;;;;4.25;2.13;;;;;;;;;;5026247;28;20107;-73
2023/09/27 13:19:56;;;;;;;4.22;1.75;;;;;;;;;;5024435;28;20032;-73
2023/09/27 13:22:21;;;;;;;3.03;2.03;;;;;;;;;;5024002;28;20030;-73
2023/09/27 13:24:47;;;;;;;3.27;1.43;;;;;;;;;;5023598;28;20539;-73
2023/09/27 13:27:12;;;;;;;0.65;0.63;;;;;;;;;;5021824;28;20268;-73
2023/09/27 13:29:39;;;;;;;2.63;1.55;;;;;;;;;;5024432;28;20071;-74
2023/09/27 13:32:04;;;;;;;2.97;1.95;;;;;;;;;;5026168;28;20660;-73
2023/09/27 13:34:30;;;;;;;1.60;1.23;;;;;;;;;;5023123;28;20033;-73
2023/09/27 13:36:55;;;;;;;2.85;1.75;;;;;;;;;;5026236;28;20109;-73
2023/09/27 13:39:25;;;;;;;2.20;1.40;;;;;;;;;;5027812;28;20021;-73
2023/09/27 13:41:50;;;;;;;3.67;1.65;;;;;;;;;;5024510;28;20271;-73
2023/09/27 13:44:16;;;;;;;3.28;1.95;;;;;;;;;;5027801;28;20014;-73
2023/09/27 13:46:41;;;;;;;6.77;2.30;;;;;;;;;;5027216;28;20014;-73
2023/09/27 13:49:06;;;;;;;2.72;1.40;;;;;;;;;;5026333;28;20080;-73
2023/09/27 13:51:34;;;;;;;6.28;2.00;;;;;;;;;;5024280;28;20025;-73
2023/09/27 13:54:00;;;;;;;2.10;1.20;;;;;;;;;;5026658;28;20108;-73
2023/09/27 13:56:25;;;;;;;3.60;1.98;;;;;;;;;;5027383;28;20101;-73
2023/09/27 13:58:50;;;;;;;2.90;1.60;;;;;;;;;;5027794;28;20033;-74
2023/09/27 14:01:15;;;;;;;8.40;1.83;;;;;;;;;;5025463;28;20029;-73
2023/09/27 14:03:41;;;;;;;10.13;1.70;;;;;;;;;;5027438;28;20551;-73
2023/09/27 14:06:06;;;;;;;4.53;1.80;;;;;;;;;;5021971;28;20026;-74
2023/09/27 14:08:31;;;;;;;3.40;1.90;;;;;;;;;;5028941;28;20268;-74
2023/09/27 14:10:57;;;;;;;4.83;1.23;;;;;;;;;;5027951;28;21583;-73
2023/09/27 14:13:22;;;;;;;4.33;1.30;;;;;;;;;;5025280;28;20291;-73
2023/09/27 14:15:47;;;;;;;2.60;1.80;;;;;;;;;;5024600;28;20392;-73
2023/09/27 14:18:12;;;;;;;3.53;1.90;;;;;;;;;;5029980;28;20727;-73
2023/09/27 14:20:37;;;;;;;3.63;1.10;;;;;;;;;;5031310;28;20235;-73
2023/09/27 14:23:02;;;;;;;2.50;1.60;;;;;;;;;;5027143;28;20365;-73
2023/09/27 14:25:28;;;;;;;3.50;1.30;;;;;;;;;;5032114;28;20029;-73
2023/09/27 14:27:53;;;;;;;4.23;2.33;;;;;;;;;;5031514;28;20100;-74
2023/09/27 14:30:19;;;;;;;3.70;1.90;;;;;;;;;;5029066;28;20296;-73
2023/09/27 14:32:44;;;;;;;5.53;1.50;;;;;;;;;;5030721;28;20043;-74